• Join FlightAware (Why Join?)
  • Login
  • US Flag 
01:56AM EDT


 

Airport Tracker/Info


-or-


 

Live Flight TrackerFlight Track Log ✈ TAM3480 ✈ 18-Jun-2013 ✈ SBBR / BSB - SBMO / MCZ

Flight Track Log - Related Links

Times and Time Zones

All times are in EDT time to prevent confusion due to time zone crossing. See the TAM3480 flight status page for this flight to view local times or setup timezone preferences in your user account.

Time Position Orientation Groundspeed Altitude Reporting Facility
EDT Latitude Longitude Course Direction KTS MPH feet Rate Location/Type
10:02PM -14.8287 -45.8164 63° Northeast  Level Estimated
10:03PM -14.7812 -45.7216 63° Northeast  Level Estimated
10:04PM -14.7337 -45.6269 63° Northeast  Level Estimated
10:05PM -14.6862 -45.5322 63° Northeast  Level Estimated
10:06PM -14.6386 -45.4375 63° Northeast  Level Estimated
10:07PM -14.5910 -45.3429 63° Northeast  Level Estimated
10:08PM -14.5434 -45.2483 63° Northeast  Level Estimated
10:09PM -14.4957 -45.1537 62° Northeast  Level Estimated
10:10PM -14.4480 -45.0592 62° Northeast  Level Estimated
10:11PM -14.4002 -44.9648 62° Northeast  Level Estimated
10:12PM -14.3524 -44.8703 62° Northeast  Level Estimated
10:13PM -14.3046 -44.7759 62° Northeast  Level Estimated
10:14PM -14.2567 -44.6816 62° Northeast  Level Estimated
10:15PM -14.2088 -44.5873 62° Northeast  Level Estimated
10:16PM -14.1608 -44.4930 62° Northeast  Level Estimated
10:17PM -14.1128 -44.3988 62° Northeast  Level Estimated
10:18PM -14.0648 -44.3046 62° Northeast  Level Estimated
10:19PM -14.0168 -44.2104 62° Northeast  Level Estimated
10:20PM -13.9687 -44.1163 62° Northeast  Level Estimated
10:21PM -13.9205 -44.0223 62° Northeast  Level Estimated
10:22PM -13.8724 -43.9282 62° Northeast  Level Estimated
10:23PM -13.8242 -43.8342 62° Northeast  Level Estimated
10:24PM -13.7759 -43.7403 62° Northeast  Level Estimated
10:25PM -13.7277 -43.6464 62° Northeast  Level Estimated
10:26PM -13.6794 -43.5525 62° Northeast  Level Estimated
10:27PM -13.6310 -43.4587 62° Northeast  Level Estimated
10:28PM -13.5826 -43.3649 62° Northeast  Level Estimated
10:29PM -13.5342 -43.2711 62° Northeast  Level Estimated
10:30PM -13.4858 -43.1774 62° Northeast  Level Estimated
10:31PM -13.4373 -43.0837 62° Northeast  Level Estimated
10:32PM -13.3888 -42.9901 62° Northeast  Level Estimated
10:33PM -13.3402 -42.8965 62° Northeast  Level Estimated
10:34PM -13.2916 -42.8029 62° Northeast  Level Estimated
10:35PM -13.2430 -42.7094 62° Northeast  Level Estimated
10:36PM -13.1944 -42.6159 62° Northeast  Level Estimated
10:37PM -13.1457 -42.5224 62° Northeast  Level Estimated
10:38PM -13.0970 -42.4290 62° Northeast  Level Estimated
10:39PM -13.0482 -42.3356 62° Northeast  Level Estimated
10:40PM -12.9994 -42.2423 62° Northeast  Level Estimated
10:41PM -12.9506 -42.1489 62° Northeast  Level Estimated
10:42PM -12.9017 -42.0557 62° Northeast  Level Estimated
10:43PM -12.8528 -41.9624 62° Northeast  Level Estimated
10:44PM -12.8039 -41.8692 62° Northeast  Level Estimated
10:45PM -12.7550 -41.7761 62° Northeast  Level Estimated
10:46PM -12.7060 -41.6829 62° Northeast  Level Estimated
10:47PM -12.6570 -41.5899 62° Northeast  Level Estimated
10:48PM -12.6079 -41.4968 62° Northeast  Level Estimated
10:49PM -12.5588 -41.4038 62° Northeast  Level Estimated
10:50PM -12.5097 -41.3108 62° Northeast  Level Estimated
10:51PM -12.4606 -41.2178 62° Northeast  Level Estimated
10:52PM -12.4114 -41.1249 62° Northeast  Level Estimated
10:53PM -12.3622 -41.0321 62° Northeast  Level Estimated
10:54PM -12.3129 -40.9392 62° Northeast  Level Estimated
10:55PM -12.2637 -40.8464 61° Northeast  Level Estimated
10:56PM -12.2143 -40.7536 61° Northeast  Level Estimated
10:57PM -12.1650 -40.6609 61° Northeast  Level Estimated
10:58PM -12.1156 -40.5682 61° Northeast  Level Estimated
10:59PM -12.0662 -40.4755 61° Northeast  Level Estimated
11:00PM -12.0168 -40.3829 61° Northeast  Level Estimated
11:01PM -11.9674 -40.2903 61° Northeast  Level Estimated
11:02PM -11.9179 -40.1977 61° Northeast  Level Estimated
11:03PM -11.8683 -40.1052 61° Northeast  Level Estimated
11:04PM -11.8188 -40.0127 61° Northeast  Level Estimated
11:05PM -11.7692 -39.9202 61° Northeast  Level Estimated
11:06PM -11.7196 -39.8278 61° Northeast  Level Estimated
11:07PM -11.6700 -39.7354 61° Northeast  Level Estimated
11:08PM -11.6203 -39.6430 61° Northeast  Level Estimated
11:09PM -11.5706 -39.5506 61° Northeast  Level Estimated
11:10PM -11.5209 -39.4583 61° Northeast  Level Estimated
11:11PM -11.4711 -39.3661 61° Northeast  Level Estimated
11:12PM -11.4213 -39.2738 61° Northeast  Level Estimated
11:13PM -11.3715 -39.1816 61° Northeast  Level Estimated
11:14PM -11.3217 -39.0895 61° Northeast  Level Estimated
11:15PM -11.2718 -38.9973 61° Northeast  Level Estimated
11:16PM -11.2219 -38.9052 61° Northeast  Level Estimated
11:17PM -11.1720 -38.8131 61° Northeast  Level Estimated
11:18PM -11.1220 -38.7211 61° Northeast  Level Estimated
11:19PM -11.0720 -38.6291 61° Northeast  Level Estimated
11:20PM -11.0220 -38.5371 61° Northeast  Level Estimated
11:21PM -10.9720 -38.4451 61° Northeast  Level Estimated
11:22PM -10.9219 -38.3532 61° Northeast  Level Estimated
11:23PM -10.8718 -38.2613 61° Northeast  Level Estimated
11:24PM -10.8217 -38.1695 61° Northeast  Level Estimated
11:25PM -10.7716 -38.0776 61° Northeast  Level Estimated
11:26PM -10.7214 -37.9858 61° Northeast  Level Estimated
11:27PM -10.6712 -37.8941 61° Northeast  Level Estimated
11:28PM -10.6209 -37.8023 61° Northeast  Level Estimated
11:29PM -10.5707 -37.7106 61° Northeast  Level Estimated
11:30PM -10.5204 -37.6189 61° Northeast  Level Estimated
11:31PM -10.4701 -37.5273 61° Northeast  Level Estimated
11:32PM -10.4198 -37.4357 61° Northeast  Level Estimated
11:33PM -10.3694 -37.3441 61° Northeast  Level Estimated
11:34PM -10.3190 -37.2525 61° Northeast  Level Estimated
11:35PM -10.2686 -37.1610 61° Northeast  Level Estimated
11:36PM -10.2182 -37.0695 61° Northeast  Level Estimated
11:37PM -10.1677 -36.9780 61° Northeast  Level Estimated
11:38PM -10.1172 -36.8866 61° Northeast  Level Estimated
11:39PM -10.0667 -36.7952 61° Northeast  Level Estimated
11:40PM -10.0161 -36.7038 61° Northeast  Level Estimated
11:41PM -9.9656 -36.6124 61° Northeast  Level Estimated
11:42PM -9.9150 -36.5211 61° Northeast  Level Estimated
11:43PM -9.8644 -36.4298 61° Northeast  Level Estimated
11:44PM -9.8137 -36.3385 61° Northeast  Level Estimated
11:45PM -9.7631 -36.2473 61° Northeast  Level Estimated
11:46PM -9.7124 -36.1561 61° Northeast  Level Estimated
11:47PM -9.6617 -36.0649 61° Northeast  Level Estimated
11:48PM -9.6109 -35.9737 61° Northeast  Level Estimated
11:49PM -9.5602 -35.8826 61° Northeast  Level Estimated
11:50PM -9.5105 -35.7934 61° Northeast  Level Estimated
11:51PM -9.5105 -35.7934 135° Southeast  Level Estimated
11:52PM -9.5105 -35.7934 135° Southeast  Level Estimated
11:53PM -9.5105 -35.7934 135° Southeast  Level Estimated
11:54PM -9.5105 -35.7934 135° Southeast  Level Estimated
11:55PM -9.5105 -35.7934 135° Southeast  Level Estimated
11:56PM -9.5105 -35.7934 135° Southeast  Level Estimated
11:57PM -9.5105 -35.7934 135° Southeast  Level Estimated
11:58PM -9.5105 -35.7934 135° Southeast  Level Estimated
11:59PM -9.5105 -35.7934 135° Southeast  Level Estimated
12:00AM -9.5105 -35.7934 135° Southeast  Level Estimated
12:01AM -9.5105 -35.7934 135° Southeast  Level Estimated
12:02AM -9.5105 -35.7934 135° Southeast  Level Estimated
12:03AM -9.5105 -35.7934 135° Southeast  Level Estimated
12:04AM -9.5105 -35.7934 135° Southeast  Level Estimated
12:05AM -9.5105 -35.7934 135° Southeast  Level Estimated
12:06AM -9.5105 -35.7934 135° Southeast  Level Estimated